sensor_id;sensor_type;location;lat;lon;timestamp;P1;durP1;ratioP1;P2;durP2;ratioP2
23155;SDS011;11746;50.876;4.246;2023-04-01T00:01:06;9.65;;;1.67;;
23155;SDS011;11746;50.876;4.246;2023-04-01T00:03:33;8.70;;;1.63;;
23155;SDS011;11746;50.876;4.246;2023-04-01T00:06:00;7.20;;;1.30;;
23155;SDS011;11746;50.876;4.246;2023-04-01T00:08:28;10.70;;;1.50;;
23155;SDS011;11746;50.876;4.246;2023-04-01T00:10:54;9.57;;;1.73;;
23155;SDS011;11746;50.876;4.246;2023-04-01T00:13:21;7.05;;;1.33;;
23155;SDS011;11746;50.876;4.246;2023-04-01T00:15:47;4.47;;;1.42;;
23155;SDS011;11746;50.876;4.246;2023-04-01T00:18:13;7.25;;;1.83;;
23155;SDS011;11746;50.876;4.246;2023-04-01T00:20:45;9.32;;;1.45;;
23155;SDS011;11746;50.876;4.246;2023-04-01T00:23:13;6.15;;;1.48;;
23155;SDS011;11746;50.876;4.246;2023-04-01T00:25:38;4.32;;;0.90;;
23155;SDS011;11746;50.876;4.246;2023-04-01T00:28:04;6.38;;;1.15;;
23155;SDS011;11746;50.876;4.246;2023-04-01T00:30:33;4.20;;;1.00;;
23155;SDS011;11746;50.876;4.246;2023-04-01T00:33:00;4.85;;;1.25;;
23155;SDS011;11746;50.876;4.246;2023-04-01T00:35:29;4.60;;;1.13;;
23155;SDS011;11746;50.876;4.246;2023-04-01T00:37:54;4.43;;;1.10;;
23155;SDS011;11746;50.876;4.246;2023-04-01T00:42:49;4.80;;;1.27;;
23155;SDS011;11746;50.876;4.246;2023-04-01T00:47:58;4.22;;;1.15;;
23155;SDS011;11746;50.876;4.246;2023-04-01T00:50:28;3.85;;;1.40;;
23155;SDS011;11746;50.876;4.246;2023-04-01T00:52:59;3.88;;;1.48;;
23155;SDS011;11746;50.876;4.246;2023-04-01T00:55:29;6.50;;;1.30;;
23155;SDS011;11746;50.876;4.246;2023-04-01T00:57:57;4.40;;;1.25;;
23155;SDS011;11746;50.876;4.246;2023-04-01T01:00:29;4.55;;;1.30;;
23155;SDS011;11746;50.876;4.246;2023-04-01T01:02:56;6.38;;;1.25;;
23155;SDS011;11746;50.876;4.246;2023-04-01T01:05:35;5.78;;;1.10;;
23155;SDS011;11746;50.876;4.246;2023-04-01T01:14:19;3.75;;;1.10;;
23155;SDS011;11746;50.876;4.246;2023-04-01T01:19:47;4.43;;;1.90;;
23155;SDS011;11746;50.876;4.246;2023-04-01T01:31:08;6.03;;;1.90;;
23155;SDS011;11746;50.876;4.246;2023-04-01T01:36:20;7.90;;;3.13;;
23155;SDS011;11746;50.876;4.246;2023-04-01T01:38:47;7.05;;;2.58;;
23155;SDS011;11746;50.876;4.246;2023-04-01T01:41:15;5.97;;;2.90;;
23155;SDS011;11746;50.876;4.246;2023-04-01T01:43:43;6.55;;;2.90;;
23155;SDS011;11746;50.876;4.246;2023-04-01T01:46:13;4.75;;;2.72;;
23155;SDS011;11746;50.876;4.246;2023-04-01T01:48:42;7.55;;;3.63;;
23155;SDS011;11746;50.876;4.246;2023-04-01T01:51:12;9.70;;;4.75;;
23155;SDS011;11746;50.876;4.246;2023-04-01T01:53:37;10.75;;;5.15;;
23155;SDS011;11746;50.876;4.246;2023-04-01T01:56:03;13.60;;;5.20;;
23155;SDS011;11746;50.876;4.246;2023-04-01T01:58:30;8.30;;;4.82;;
23155;SDS011;11746;50.876;4.246;2023-04-01T02:01:06;10.45;;;4.82;;
23155;SDS011;11746;50.876;4.246;2023-04-01T02:03:36;8.90;;;4.55;;
23155;SDS011;11746;50.876;4.246;2023-04-01T02:06:05;9.48;;;3.90;;
23155;SDS011;11746;50.876;4.246;2023-04-01T02:08:51;8.27;;;3.45;;
23155;SDS011;11746;50.876;4.246;2023-04-01T02:11:28;10.60;;;3.45;;
23155;SDS011;11746;50.876;4.246;2023-04-01T02:14:22;8.38;;;3.28;;
23155;SDS011;11746;50.876;4.246;2023-04-01T02:16:54;8.57;;;3.60;;
23155;SDS011;11746;50.876;4.246;2023-04-01T02:19:26;8.32;;;3.38;;
23155;SDS011;11746;50.876;4.246;2023-04-01T02:22:00;11.05;;;4.30;;
23155;SDS011;11746;50.876;4.246;2023-04-01T02:24:29;8.88;;;3.03;;
23155;SDS011;11746;50.876;4.246;2023-04-01T02:26:56;9.68;;;3.45;;
23155;SDS011;11746;50.876;4.246;2023-04-01T02:29:23;8.38;;;2.78;;
23155;SDS011;11746;50.876;4.246;2023-04-01T02:31:53;7.15;;;2.90;;
23155;SDS011;11746;50.876;4.246;2023-04-01T02:34:20;7.55;;;3.50;;
23155;SDS011;11746;50.876;4.246;2023-04-01T02:36:48;7.22;;;2.78;;
23155;SDS011;11746;50.876;4.246;2023-04-01T02:39:15;10.57;;;3.03;;
23155;SDS011;11746;50.876;4.246;2023-04-01T02:41:44;5.65;;;3.05;;
23155;SDS011;11746;50.876;4.246;2023-04-01T02:44:13;6.97;;;2.85;;
23155;SDS011;11746;50.876;4.246;2023-04-01T02:46:40;8.18;;;3.10;;
23155;SDS011;11746;50.876;4.246;2023-04-01T02:49:06;6.22;;;2.88;;
23155;SDS011;11746;50.876;4.246;2023-04-01T02:51:32;8.85;;;2.88;;
23155;SDS011;11746;50.876;4.246;2023-04-01T02:53:58;9.43;;;3.05;;
23155;SDS011;11746;50.876;4.246;2023-04-01T02:56:24;5.45;;;2.85;;
23155;SDS011;11746;50.876;4.246;2023-04-01T02:58:51;8.43;;;3.33;;
23155;SDS011;11746;50.876;4.246;2023-04-01T03:01:16;8.93;;;3.58;;
23155;SDS011;11746;50.876;4.246;2023-04-01T03:03:42;9.80;;;3.67;;
23155;SDS011;11746;50.876;4.246;2023-04-01T03:06:09;8.85;;;3.72;;
23155;SDS011;11746;50.876;4.246;2023-04-01T03:08:36;11.77;;;3.88;;
23155;SDS011;11746;50.876;4.246;2023-04-01T03:11:05;10.93;;;4.50;;
23155;SDS011;11746;50.876;4.246;2023-04-01T03:13:34;8.57;;;4.80;;
23155;SDS011;11746;50.876;4.246;2023-04-01T03:15:59;11.65;;;5.65;;
23155;SDS011;11746;50.876;4.246;2023-04-01T03:18:25;13.23;;;5.53;;
23155;SDS011;11746;50.876;4.246;2023-04-01T03:20:50;11.65;;;5.25;;
23155;SDS011;11746;50.876;4.246;2023-04-01T03:23:18;10.52;;;5.68;;
23155;SDS011;11746;50.876;4.246;2023-04-01T03:25:46;9.98;;;5.85;;
23155;SDS011;11746;50.876;4.246;2023-04-01T03:28:13;12.43;;;6.32;;
23155;SDS011;11746;50.876;4.246;2023-04-01T03:30:44;11.88;;;5.90;;
23155;SDS011;11746;50.876;4.246;2023-04-01T03:33:09;16.38;;;7.00;;
23155;SDS011;11746;50.876;4.246;2023-04-01T03:35:35;11.73;;;6.18;;
23155;SDS011;11746;50.876;4.246;2023-04-01T03:38:01;14.52;;;6.30;;
23155;SDS011;11746;50.876;4.246;2023-04-01T03:40:27;16.25;;;6.40;;
23155;SDS011;11746;50.876;4.246;2023-04-01T03:42:52;10.93;;;6.15;;
23155;SDS011;11746;50.876;4.246;2023-04-01T03:45:21;13.82;;;6.63;;
23155;SDS011;11746;50.876;4.246;2023-04-01T03:47:46;11.95;;;5.85;;
23155;SDS011;11746;50.876;4.246;2023-04-01T03:50:12;18.85;;;6.18;;
23155;SDS011;11746;50.876;4.246;2023-04-01T03:52:37;16.55;;;6.43;;
23155;SDS011;11746;50.876;4.246;2023-04-01T03:55:04;14.93;;;5.70;;
23155;SDS011;11746;50.876;4.246;2023-04-01T03:57:33;14.52;;;5.82;;
23155;SDS011;11746;50.876;4.246;2023-04-01T03:59:58;17.35;;;6.43;;
23155;SDS011;11746;50.876;4.246;2023-04-01T04:02:24;15.98;;;5.75;;
23155;SDS011;11746;50.876;4.246;2023-04-01T04:04:52;17.75;;;6.30;;
23155;SDS011;11746;50.876;4.246;2023-04-01T04:07:20;10.90;;;5.72;;
23155;SDS011;11746;50.876;4.246;2023-04-01T04:09:46;12.70;;;5.57;;
23155;SDS011;11746;50.876;4.246;2023-04-01T04:12:12;11.93;;;5.15;;
23155;SDS011;11746;50.876;4.246;2023-04-01T04:14:38;14.07;;;5.65;;
23155;SDS011;11746;50.876;4.246;2023-04-01T04:17:06;9.25;;;4.38;;
23155;SDS011;11746;50.876;4.246;2023-04-01T04:19:38;12.32;;;4.38;;
23155;SDS011;11746;50.876;4.246;2023-04-01T04:22:04;10.05;;;4.93;;
23155;SDS011;11746;50.876;4.246;2023-04-01T04:24:29;10.13;;;4.43;;
23155;SDS011;11746;50.876;4.246;2023-04-01T04:26:55;9.20;;;4.38;;
23155;SDS011;11746;50.876;4.246;2023-04-01T04:29:21;6.30;;;3.72;;
23155;SDS011;11746;50.876;4.246;2023-04-01T04:31:49;7.10;;;4.22;;
23155;SDS011;11746;50.876;4.246;2023-04-01T04:34:14;8.57;;;3.80;;
23155;SDS011;11746;50.876;4.246;2023-04-01T04:36:42;5.20;;;3.50;;
23155;SDS011;11746;50.876;4.246;2023-04-01T04:39:10;7.05;;;4.05;;
23155;SDS011;11746;50.876;4.246;2023-04-01T04:41:39;7.38;;;3.67;;
23155;SDS011;11746;50.876;4.246;2023-04-01T04:44:07;5.97;;;3.58;;
23155;SDS011;11746;50.876;4.246;2023-04-01T04:46:33;7.80;;;4.07;;
23155;SDS011;11746;50.876;4.246;2023-04-01T04:48:58;5.82;;;3.38;;
23155;SDS011;11746;50.876;4.246;2023-04-01T04:51:24;6.80;;;3.00;;
23155;SDS011;11746;50.876;4.246;2023-04-01T04:53:50;5.65;;;3.30;;
23155;SDS011;11746;50.876;4.246;2023-04-01T04:56:21;4.88;;;2.90;;
23155;SDS011;11746;50.876;4.246;2023-04-01T04:58:50;5.03;;;3.65;;
23155;SDS011;11746;50.876;4.246;2023-04-01T05:01:19;7.07;;;3.50;;
23155;SDS011;11746;50.876;4.246;2023-04-01T05:03:50;5.90;;;4.15;;
23155;SDS011;11746;50.876;4.246;2023-04-01T05:06:17;5.70;;;3.40;;
23155;SDS011;11746;50.876;4.246;2023-04-01T05:08:45;7.15;;;4.28;;
23155;SDS011;11746;50.876;4.246;2023-04-01T05:11:18;8.25;;;4.40;;
23155;SDS011;11746;50.876;4.246;2023-04-01T05:13:45;6.28;;;3.83;;
23155;SDS011;11746;50.876;4.246;2023-04-01T05:16:12;8.60;;;4.95;;
23155;SDS011;11746;50.876;4.246;2023-04-01T05:18:45;9.13;;;4.65;;
23155;SDS011;11746;50.876;4.246;2023-04-01T05:21:12;8.90;;;5.20;;
23155;SDS011;11746;50.876;4.246;2023-04-01T05:23:40;10.65;;;5.72;;
23155;SDS011;11746;50.876;4.246;2023-04-01T05:26:10;12.80;;;5.63;;
23155;SDS011;11746;50.876;4.246;2023-04-01T05:28:39;8.25;;;5.38;;
23155;SDS011;11746;50.876;4.246;2023-04-01T05:31:06;12.70;;;6.50;;
23155;SDS011;11746;50.876;4.246;2023-04-01T05:33:32;10.90;;;6.57;;
23155;SDS011;11746;50.876;4.246;2023-04-01T05:36:10;13.52;;;6.50;;
23155;SDS011;11746;50.876;4.246;2023-04-01T05:38:38;12.35;;;6.45;;
23155;SDS011;11746;50.876;4.246;2023-04-01T05:41:04;14.00;;;6.65;;
23155;SDS011;11746;50.876;4.246;2023-04-01T05:43:30;12.60;;;6.57;;
23155;SDS011;11746;50.876;4.246;2023-04-01T05:45:56;13.80;;;7.18;;
23155;SDS011;11746;50.876;4.246;2023-04-01T05:48:22;15.95;;;7.32;;
23155;SDS011;11746;50.876;4.246;2023-04-01T05:50:47;12.88;;;7.07;;
23155;SDS011;11746;50.876;4.246;2023-04-01T05:53:18;15.40;;;7.70;;
23155;SDS011;11746;50.876;4.246;2023-04-01T05:55:44;12.00;;;6.93;;
23155;SDS011;11746;50.876;4.246;2023-04-01T05:58:09;20.70;;;9.25;;
23155;SDS011;11746;50.876;4.246;2023-04-01T06:00:35;14.93;;;8.77;;
23155;SDS011;11746;50.876;4.246;2023-04-01T06:03:01;14.70;;;8.30;;
23155;SDS011;11746;50.876;4.246;2023-04-01T06:05:28;16.73;;;8.85;;
23155;SDS011;11746;50.876;4.246;2023-04-01T06:07:58;16.73;;;9.27;;
23155;SDS011;11746;50.876;4.246;2023-04-01T06:16:15;18.35;;;8.38;;
23155;SDS011;11746;50.876;4.246;2023-04-01T06:32:55;15.20;;;7.90;;
23155;SDS011;11746;50.876;4.246;2023-04-01T06:38:46;12.90;;;7.32;;
23155;SDS011;11746;50.876;4.246;2023-04-01T06:55:46;12.32;;;7.15;;
23155;SDS011;11746;50.876;4.246;2023-04-01T06:58:20;10.40;;;7.10;;
23155;SDS011;11746;50.876;4.246;2023-04-01T07:00:48;13.38;;;6.53;;
23155;SDS011;11746;50.876;4.246;2023-04-01T07:03:26;9.10;;;5.32;;
23155;SDS011;11746;50.876;4.246;2023-04-01T07:06:04;11.65;;;5.28;;
23155;SDS011;11746;50.876;4.246;2023-04-01T07:08:35;9.85;;;5.60;;
23155;SDS011;11746;50.876;4.246;2023-04-01T07:11:06;10.85;;;5.80;;
23155;SDS011;11746;50.876;4.246;2023-04-01T07:16:20;9.52;;;5.50;;
23155;SDS011;11746;50.876;4.246;2023-04-01T07:21:29;11.80;;;6.30;;
23155;SDS011;11746;50.876;4.246;2023-04-01T07:24:03;8.50;;;5.75;;
23155;SDS011;11746;50.876;4.246;2023-04-01T07:26:34;8.30;;;4.32;;
23155;SDS011;11746;50.876;4.246;2023-04-01T07:28:59;7.72;;;4.25;;
23155;SDS011;11746;50.876;4.246;2023-04-01T07:31:39;6.05;;;3.88;;
23155;SDS011;11746;50.876;4.246;2023-04-01T07:55:50;2.15;;;1.60;;
23155;SDS011;11746;50.876;4.246;2023-04-01T08:03:36;3.55;;;1.83;;
23155;SDS011;11746;50.876;4.246;2023-04-01T08:06:07;3.83;;;2.15;;
23155;SDS011;11746;50.876;4.246;2023-04-01T08:17:15;1.83;;;1.30;;
23155;SDS011;11746;50.876;4.246;2023-04-01T08:20:16;2.72;;;1.40;;
23155;SDS011;11746;50.876;4.246;2023-04-01T08:23:00;2.13;;;1.50;;
23155;SDS011;11746;50.876;4.246;2023-04-01T08:25:49;3.25;;;1.75;;
23155;SDS011;11746;50.876;4.246;2023-04-01T08:28:19;2.63;;;1.40;;
23155;SDS011;11746;50.876;4.246;2023-04-01T08:30:47;2.88;;;1.88;;
23155;SDS011;11746;50.876;4.246;2023-04-01T08:33:27;2.63;;;1.50;;
23155;SDS011;11746;50.876;4.246;2023-04-01T08:38:46;1.80;;;1.30;;
23155;SDS011;11746;50.876;4.246;2023-04-01T08:44:30;2.10;;;1.40;;
23155;SDS011;11746;50.876;4.246;2023-04-01T08:52:23;3.58;;;1.33;;
23155;SDS011;11746;50.876;4.246;2023-04-01T09:09:28;4.07;;;2.17;;
23155;SDS011;11746;50.876;4.246;2023-04-01T09:12:16;3.28;;;2.05;;
23155;SDS011;11746;50.876;4.246;2023-04-01T09:18:08;3.33;;;2.30;;
23155;SDS011;11746;50.876;4.246;2023-04-01T09:26:18;5.38;;;2.15;;
23155;SDS011;11746;50.876;4.246;2023-04-01T09:43:29;4.50;;;2.25;;
23155;SDS011;11746;50.876;4.246;2023-04-01T09:46:18;5.32;;;2.08;;
23155;SDS011;11746;50.876;4.246;2023-04-01T10:17:37;6.00;;;1.92;;
23155;SDS011;11746;50.876;4.246;2023-04-01T10:20:25;4.53;;;2.45;;
23155;SDS011;11746;50.876;4.246;2023-04-01T10:23:19;2.60;;;1.50;;
23155;SDS011;11746;50.876;4.246;2023-04-01T10:34:10;2.10;;;0.93;;
23155;SDS011;11746;50.876;4.246;2023-04-01T11:02:01;2.30;;;1.10;;
23155;SDS011;11746;50.876;4.246;2023-04-01T11:24:24;3.65;;;1.90;;
23155;SDS011;11746;50.876;4.246;2023-04-01T11:27:18;3.92;;;1.95;;
23155;SDS011;11746;50.876;4.246;2023-04-01T11:44:03;2.88;;;1.17;;
23155;SDS011;11746;50.876;4.246;2023-04-01T12:08:50;2.20;;;1.10;;
23155;SDS011;11746;50.876;4.246;2023-04-01T12:19:46;2.70;;;1.73;;
23155;SDS011;11746;50.876;4.246;2023-04-01T12:36:13;2.35;;;1.40;;
23155;SDS011;11746;50.876;4.246;2023-04-01T12:44:33;3.72;;;2.05;;
23155;SDS011;11746;50.876;4.246;2023-04-01T12:50:08;4.43;;;2.30;;
23155;SDS011;11746;50.876;4.246;2023-04-01T12:55:46;1.88;;;1.08;;
23155;SDS011;11746;50.876;4.246;2023-04-01T13:22:26;2.38;;;1.33;;
23155;SDS011;11746;50.876;4.246;2023-04-01T13:25:05;2.28;;;1.10;;
23155;SDS011;11746;50.876;4.246;2023-04-01T13:27:37;2.95;;;1.17;;
23155;SDS011;11746;50.876;4.246;2023-04-01T13:32:47;2.45;;;0.93;;
23155;SDS011;11746;50.876;4.246;2023-04-01T14:02:21;2.42;;;1.25;;
23155;SDS011;11746;50.876;4.246;2023-04-01T14:07:31;1.80;;;1.33;;
23155;SDS011;11746;50.876;4.246;2023-04-01T14:13:20;1.88;;;1.08;;
23155;SDS011;11746;50.876;4.246;2023-04-01T14:30:55;1.80;;;1.05;;
23155;SDS011;11746;50.876;4.246;2023-04-01T14:47:13;2.83;;;1.10;;
23155;SDS011;11746;50.876;4.246;2023-04-01T14:49:47;2.63;;;1.17;;
23155;SDS011;11746;50.876;4.246;2023-04-01T14:52:27;3.08;;;0.98;;
23155;SDS011;11746;50.876;4.246;2023-04-01T14:54:56;2.63;;;1.20;;
23155;SDS011;11746;50.876;4.246;2023-04-01T15:04:55;1.88;;;1.00;;
23155;SDS011;11746;50.876;4.246;2023-04-01T15:24:40;4.13;;;1.40;;
23155;SDS011;11746;50.876;4.246;2023-04-01T15:30:26;2.00;;;1.08;;
23155;SDS011;11746;50.876;4.246;2023-04-01T15:33:26;1.65;;;1.10;;
23155;SDS011;11746;50.876;4.246;2023-04-01T15:36:20;4.32;;;1.15;;
23155;SDS011;11746;50.876;4.246;2023-04-01T15:47:23;2.35;;;0.90;;
23155;SDS011;11746;50.876;4.246;2023-04-01T16:03:38;1.02;;;0.88;;
23155;SDS011;11746;50.876;4.246;2023-04-01T16:17:26;1.83;;;0.70;;
23155;SDS011;11746;50.876;4.246;2023-04-01T16:22:30;1.02;;;0.80;;
23155;SDS011;11746;50.876;4.246;2023-04-01T16:27:54;1.77;;;0.85;;
23155;SDS011;11746;50.876;4.246;2023-04-01T16:30:38;2.20;;;0.82;;
23155;SDS011;11746;50.876;4.246;2023-04-01T16:33:15;2.30;;;1.00;;
23155;SDS011;11746;50.876;4.246;2023-04-01T16:36:12;2.35;;;0.88;;
23155;SDS011;11746;50.876;4.246;2023-04-01T16:41:33;4.13;;;1.13;;
23155;SDS011;11746;50.876;4.246;2023-04-01T16:46:44;1.60;;;1.10;;
23155;SDS011;11746;50.876;4.246;2023-04-01T16:49:23;1.73;;;0.90;;
23155;SDS011;11746;50.876;4.246;2023-04-01T16:59:54;2.80;;;1.52;;
23155;SDS011;11746;50.876;4.246;2023-04-01T17:02:27;3.25;;;1.20;;
23155;SDS011;11746;50.876;4.246;2023-04-01T17:18:32;2.05;;;1.30;;
23155;SDS011;11746;50.876;4.246;2023-04-01T17:35:35;2.58;;;1.60;;
23155;SDS011;11746;50.876;4.246;2023-04-01T17:46:27;2.67;;;1.58;;
23155;SDS011;11746;50.876;4.246;2023-04-01T17:52:04;2.17;;;1.60;;
23155;SDS011;11746;50.876;4.246;2023-04-01T17:57:54;4.97;;;2.10;;
23155;SDS011;11746;50.876;4.246;2023-04-01T18:06:07;5.30;;;2.20;;
23155;SDS011;11746;50.876;4.246;2023-04-01T18:17:11;4.45;;;4.03;;
23155;SDS011;11746;50.876;4.246;2023-04-01T18:19:54;7.45;;;4.38;;
23155;SDS011;11746;50.876;4.246;2023-04-01T18:22:47;9.38;;;4.95;;
23155;SDS011;11746;50.876;4.246;2023-04-01T18:25:32;6.07;;;3.88;;
23155;SDS011;11746;50.876;4.246;2023-04-01T18:30:50;7.72;;;5.57;;
23155;SDS011;11746;50.876;4.246;2023-04-01T18:39:02;8.10;;;5.50;;
23155;SDS011;11746;50.876;4.246;2023-04-01T18:41:53;7.88;;;5.95;;
23155;SDS011;11746;50.876;4.246;2023-04-01T18:52:50;10.63;;;7.55;;
23155;SDS011;11746;50.876;4.246;2023-04-01T19:06:08;13.75;;;9.70;;
23155;SDS011;11746;50.876;4.246;2023-04-01T19:08:50;12.57;;;10.05;;
23155;SDS011;11746;50.876;4.246;2023-04-01T19:11:20;18.10;;;11.32;;
23155;SDS011;11746;50.876;4.246;2023-04-01T19:22:57;19.77;;;13.43;;
23155;SDS011;11746;50.876;4.246;2023-04-01T19:28:03;28.20;;;14.25;;
23155;SDS011;11746;50.876;4.246;2023-04-01T19:36:31;21.02;;;14.40;;
23155;SDS011;11746;50.876;4.246;2023-04-01T19:39:23;23.17;;;14.00;;
23155;SDS011;11746;50.876;4.246;2023-04-01T19:42:14;26.40;;;14.95;;
23155;SDS011;11746;50.876;4.246;2023-04-01T19:47:55;20.90;;;13.68;;
23155;SDS011;11746;50.876;4.246;2023-04-01T19:56:20;30.33;;;15.75;;
23155;SDS011;11746;50.876;4.246;2023-04-01T19:58:52;29.25;;;15.45;;
23155;SDS011;11746;50.876;4.246;2023-04-01T20:15:28;30.35;;;17.25;;
23155;SDS011;11746;50.876;4.246;2023-04-01T20:18:00;29.55;;;16.17;;
23155;SDS011;11746;50.876;4.246;2023-04-01T20:20:35;26.15;;;14.68;;
23155;SDS011;11746;50.876;4.246;2023-04-01T20:26:02;27.52;;;14.38;;
23155;SDS011;11746;50.876;4.246;2023-04-01T20:28:47;29.50;;;14.88;;
23155;SDS011;11746;50.876;4.246;2023-04-01T20:31:40;24.88;;;13.98;;
23155;SDS011;11746;50.876;4.246;2023-04-01T20:48:23;27.35;;;16.83;;
23155;SDS011;11746;50.876;4.246;2023-04-01T20:51:16;31.95;;;18.10;;
23155;SDS011;11746;50.876;4.246;2023-04-01T20:57:23;34.53;;;18.15;;
23155;SDS011;11746;50.876;4.246;2023-04-01T21:24:34;40.55;;;21.42;;
23155;SDS011;11746;50.876;4.246;2023-04-01T22:11:31;22.60;;;14.43;;
23155;SDS011;11746;50.876;4.246;2023-04-01T22:21:51;24.50;;;16.08;;
23155;SDS011;11746;50.876;4.246;2023-04-01T22:24:33;20.92;;;14.57;;
23155;SDS011;11746;50.876;4.246;2023-04-01T22:27:31;20.58;;;14.32;;
23155;SDS011;11746;50.876;4.246;2023-04-01T22:32:49;19.17;;;13.65;;
23155;SDS011;11746;50.876;4.246;2023-04-01T22:43:21;17.70;;;13.98;;
23155;SDS011;11746;50.876;4.246;2023-04-01T22:49:14;19.40;;;13.95;;
23155;SDS011;11746;50.876;4.246;2023-04-01T22:57:04;17.52;;;12.82;;
23155;SDS011;11746;50.876;4.246;2023-04-01T22:59:37;17.52;;;12.93;;
23155;SDS011;11746;50.876;4.246;2023-04-01T23:05:02;20.30;;;15.55;;
23155;SDS011;11746;50.876;4.246;2023-04-01T23:10:13;22.55;;;17.17;;
23155;SDS011;11746;50.876;4.246;2023-04-01T23:12:56;22.10;;;17.90;;
23155;SDS011;11746;50.876;4.246;2023-04-01T23:15:25;23.25;;;18.25;;
23155;SDS011;11746;50.876;4.246;2023-04-01T23:17:58;22.10;;;16.58;;
23155;SDS011;11746;50.876;4.246;2023-04-01T23:20:49;19.80;;;16.33;;
23155;SDS011;11746;50.876;4.246;2023-04-01T23:24:05;18.92;;;15.45;;
23155;SDS011;11746;50.876;4.246;2023-04-01T23:26:36;19.70;;;15.88;;
23155;SDS011;11746;50.876;4.246;2023-04-01T23:29:22;17.27;;;14.57;;
23155;SDS011;11746;50.876;4.246;2023-04-01T23:31:57;17.77;;;14.25;;
23155;SDS011;11746;50.876;4.246;2023-04-01T23:34:30;18.17;;;14.50;;
23155;SDS011;11746;50.876;4.246;2023-04-01T23:37:12;17.48;;;14.15;;
23155;SDS011;11746;50.876;4.246;2023-04-01T23:39:42;19.08;;;14.73;;
23155;SDS011;11746;50.876;4.246;2023-04-01T23:42:27;23.70;;;18.13;;
23155;SDS011;11746;50.876;4.246;2023-04-01T23:45:03;26.75;;;19.13;;
23155;SDS011;11746;50.876;4.246;2023-04-01T23:47:37;30.27;;;20.80;;
23155;SDS011;11746;50.876;4.246;2023-04-01T23:50:25;28.60;;;21.02;;
23155;SDS011;11746;50.876;4.246;2023-04-01T23:52:53;27.58;;;20.52;;
23155;SDS011;11746;50.876;4.246;2023-04-01T23:55:29;29.67;;;21.77;;
